createdAt,value
2023-03-31T00:00:01.308Z,97923.84
2023-03-31T00:10:49.240Z,97931.48
2023-03-31T00:21:25.531Z,97926.93
2023-03-31T00:31:51.880Z,97929.77
2023-03-31T00:42:17.769Z,97923.55
2023-03-31T00:52:43.677Z,97921.25
2023-03-31T01:03:11.425Z,97929.65
2023-03-31T01:13:39.566Z,97919.14
2023-03-31T01:24:50.082Z,97906.61
2023-03-31T01:35:44.086Z,97905.31
2023-03-31T01:46:19.464Z,97908.05
2023-03-31T01:56:49.445Z,97911.20
2023-03-31T02:07:19.104Z,97903.68
2023-03-31T02:17:51.047Z,97905.43
2023-03-31T02:28:22.329Z,97900.14
2023-03-31T02:38:51.617Z,97887.84
2023-03-31T02:49:19.160Z,97881.59
2023-03-31T02:59:59.890Z,97882.96
2023-03-31T03:10:36.814Z,97883.04
2023-03-31T03:21:02.857Z,97883.52
2023-03-31T03:31:37.656Z,97870.15
2023-03-31T03:42:03.433Z,97864.69
2023-03-31T03:52:29.585Z,97857.63
2023-03-31T04:02:55.618Z,97852.36
2023-03-31T04:13:22.315Z,97850.36
2023-03-31T04:23:48.165Z,97845.91
2023-03-31T04:34:16.217Z,97835.15
2023-03-31T04:44:41.900Z,97830.67
2023-03-31T04:55:09.028Z,97818.80
2023-03-31T05:05:34.895Z,97807.69
2023-03-31T05:16:01.997Z,97798.77
2023-03-31T05:26:28.075Z,97806.24
2023-03-31T05:36:54.272Z,97786.92
2023-03-31T05:47:19.811Z,97785.52
2023-03-31T05:57:45.204Z,97783.36
2023-03-31T06:08:11.735Z,97781.84
2023-03-31T06:18:38.759Z,97773.44
2023-03-31T06:29:05.027Z,97766.40
2023-03-31T06:39:31.190Z,97764.34
2023-03-31T06:49:57.078Z,97759.00
2023-03-31T07:00:26.025Z,97755.27
2023-03-31T07:10:55.291Z,97741.21
2023-03-31T07:21:22.014Z,97737.81
2023-03-31T07:31:50.021Z,97730.50
2023-03-31T07:42:16.286Z,97722.17
2023-03-31T07:52:45.444Z,97711.39
2023-03-31T08:03:12.585Z,97705.16
2023-03-31T08:13:38.583Z,97694.23
2023-03-31T08:24:06.055Z,97670.64
2023-03-31T08:34:32.182Z,97641.40
2023-03-31T08:45:05.012Z,97630.13
2023-03-31T08:55:38.348Z,97616.36
2023-03-31T09:06:07.179Z,97605.71
2023-03-31T09:16:38.344Z,97589.35
2023-03-31T09:27:07.489Z,97575.58
2023-03-31T09:37:35.247Z,97561.05
2023-03-31T09:48:03.033Z,97548.53
2023-03-31T09:58:27.534Z,97534.94
2023-03-31T10:08:56.740Z,97531.17
2023-03-31T10:19:25.832Z,97523.89
2023-03-31T10:29:56.180Z,97503.31
2023-03-31T10:40:25.965Z,97496.80
2023-03-31T10:50:51.627Z,97480.98
2023-03-31T11:01:32.466Z,97469.30
2023-03-31T11:12:09.541Z,97460.16
2023-03-31T11:22:45.328Z,97443.42
2023-03-31T11:33:33.777Z,97421.02
2023-03-31T11:44:04.057Z,97401.08
2023-03-31T11:54:34.766Z,97382.12
2023-03-31T12:05:02.278Z,97358.88
2023-03-31T12:15:32.676Z,97350.55
2023-03-31T12:26:07.548Z,97336.84
2023-03-31T12:36:47.004Z,97315.25
2023-03-31T12:47:30.345Z,97310.91
2023-03-31T12:58:15.946Z,97298.11
2023-03-31T13:08:56.249Z,97287.28
2023-03-31T13:19:32.947Z,97286.29
2023-03-31T13:29:58.864Z,97275.70
2023-03-31T13:40:53.462Z,97260.58
2023-03-31T13:51:27.915Z,97250.41
2023-03-31T14:02:15.886Z,97236.64
2023-03-31T14:12:42.003Z,97216.69
2023-03-31T14:23:18.291Z,97201.61
2023-03-31T14:33:51.933Z,97181.76
2023-03-31T14:44:19.364Z,97162.66
2023-03-31T14:54:48.647Z,97133.70
2023-03-31T15:05:30.139Z,97121.89
2023-03-31T15:15:55.990Z,97114.92
2023-03-31T15:26:28.111Z,97095.26
2023-03-31T15:37:02.692Z,97068.05
2023-03-31T15:47:31.140Z,97041.14
2023-03-31T15:57:58.583Z,97018.01
2023-03-31T16:08:32.750Z,97011.77
2023-03-31T16:19:05.254Z,97006.11
2023-03-31T16:29:31.870Z,96996.52
2023-03-31T16:39:57.902Z,96989.29
2023-03-31T16:50:23.631Z,96978.02
2023-03-31T17:00:50.351Z,96963.91
2023-03-31T17:11:16.448Z,96941.13
2023-03-31T17:21:42.150Z,96925.42
2023-03-31T17:32:07.760Z,96918.49
2023-03-31T17:42:33.839Z,96926.05
2023-03-31T17:52:59.636Z,96925.39
2023-03-31T18:03:25.587Z,96943.64
2023-03-31T18:13:51.653Z,96936.78
2023-03-31T18:24:18.870Z,96932.66
2023-03-31T18:34:44.611Z,96933.67
2023-03-31T18:45:11.269Z,96930.13
2023-03-31T18:55:36.999Z,96917.68
2023-03-31T19:06:10.246Z,96918.35
2023-03-31T19:16:41.932Z,96916.30
2023-03-31T19:27:08.190Z,96915.88
2023-03-31T19:37:34.014Z,96923.70
2023-03-31T19:47:59.845Z,96918.23
2023-03-31T19:58:25.464Z,96911.05
2023-03-31T20:08:55.787Z,96914.93
2023-03-31T20:19:23.365Z,96911.77
2023-03-31T20:29:49.507Z,96915.91
2023-03-31T20:40:16.123Z,96930.66
2023-03-31T20:50:42.037Z,96927.13
2023-03-31T21:01:08.606Z,96951.16
2023-03-31T21:11:34.318Z,96962.42
2023-03-31T21:22:00.098Z,96954.39
2023-03-31T21:32:26.125Z,96955.14
2023-03-31T21:42:52.100Z,96961.65
2023-03-31T21:53:17.514Z,96968.27
2023-03-31T22:03:43.343Z,96971.12
2023-03-31T22:14:09.303Z,96960.82
2023-03-31T22:24:34.844Z,96979.52
2023-03-31T22:35:01.508Z,96990.45
2023-03-31T22:45:27.541Z,97001.91
2023-03-31T22:55:54.603Z,96997.81
2023-03-31T23:06:22.048Z,96987.08
2023-03-31T23:16:48.061Z,96994.73
2023-03-31T23:27:13.858Z,96989.96
2023-03-31T23:37:40.163Z,96973.02
2023-03-31T23:48:06.829Z,96971.41
2023-03-31T23:58:33.145Z,96961.50
